Terminal Aerodrome Forecast
Issued by NWS

Home | Current Version | Previous Version | Text Only | Print | Product List | Glossary On
Versions: 1 2 3 4 5 6 7 8 9 10 11 12 13 14 15 16 17 18 19 20 21 22 23 24 25 26 27 28 29 30 31 32
818
FTUS41 KOKX 311540 AAB
TAFTEB
TAF AMD
KTEB 311540Z 3116/0112 36005KT P6SM SCT035
     FM311800 30007KT P6SM SCT050
     FM312000 15006KT P6SM FEW080
     FM010000 VRB03KT P6SM FEW080=

USA.gov is the U.S. government's official web portal to all federal, state and local government web resources and services.